Time;durP1;ratioP1;P1;durP2;ratioP2;P2;SDS_P1;SDS_P2;PMS_P1;PMS_P2;Temp;Humidity;BMP_temperature;BMP_pressure;BME280_temperature;BME280_humidity;BME280_pressure;Samples;Min_cycle;Max_cycle;Signal;HPM_P1;HPM_P2
2021/10/26 00:02:16;;;;;;;8.93;4.15;;;;;;;4.12;100.00;99492.56;5038501;28;20099;-83
2021/10/26 00:04:43;;;;;;;7.78;4.38;;;;;;;3.88;100.00;99467.72;5031108;28;20049;-83
2021/10/26 00:07:10;;;;;;;8.77;4.65;;;;;;;3.84;100.00;99477.03;5019329;28;20060;-83
2021/10/26 00:09:36;;;;;;;6.85;4.22;;;;;;;3.81;100.00;99474.59;5033298;28;20076;-83
2021/10/26 00:12:04;;;;;;;8.75;4.32;;;;;;;3.93;100.00;99486.13;5039172;28;20037;-83
2021/10/26 00:14:31;;;;;;;10.93;4.78;;;;;;;4.08;100.00;99489.31;5042610;28;20050;-83
2021/10/26 00:16:58;;;;;;;6.63;4.30;;;;;;;3.93;100.00;99483.44;5032179;28;20053;-83
2021/10/26 00:19:26;;;;;;;7.40;4.55;;;;;;;3.94;100.00;99466.28;5041113;28;20461;-83
2021/10/26 00:21:53;;;;;;;5.22;4.03;;;;;;;3.96;100.00;99490.38;5033570;28;20554;-83
2021/10/26 00:24:20;;;;;;;6.35;4.40;;;;;;;3.96;100.00;99485.00;5049116;28;20045;-82
2021/10/26 00:26:47;;;;;;;7.70;4.80;;;;;;;3.99;100.00;99488.28;5041509;28;20100;-83
2021/10/26 00:29:14;;;;;;;12.38;5.47;;;;;;;4.11;100.00;99488.16;5034569;28;20053;-83
2021/10/26 00:31:41;;;;;;;9.32;5.38;;;;;;;4.18;100.00;99505.50;5031561;28;20049;-83
2021/10/26 00:34:09;;;;;;;9.55;4.90;;;;;;;4.13;100.00;99494.28;5041407;28;20052;-83
2021/10/26 00:36:37;;;;;;;8.95;5.47;;;;;;;4.28;100.00;99510.91;5038492;28;20540;-83
2021/10/26 00:39:06;;;;;;;9.60;5.75;;;;;;;4.33;100.00;99505.97;5028333;28;20099;-83
2021/10/26 00:41:33;;;;;;;10.50;5.95;;;;;;;4.31;100.00;99489.13;5036385;28;20423;-83
2021/10/26 00:44:00;;;;;;;10.82;5.38;;;;;;;4.22;100.00;99501.53;5047365;28;20409;-83
2021/10/26 00:46:28;;;;;;;8.00;5.65;;;;;;;4.36;100.00;99498.47;5047930;28;20045;-82
2021/10/26 00:48:57;;;;;;;8.85;5.03;;;;;;;4.38;100.00;99509.09;5033642;28;20046;-83
2021/10/26 00:51:25;;;;;;;7.97;5.10;;;;;;;4.37;100.00;99486.72;5033355;28;20140;-84
2021/10/26 00:53:54;;;;;;;10.95;6.25;;;;;;;4.46;100.00;99506.59;5034252;28;20485;-83
2021/10/26 00:56:21;;;;;;;8.55;5.72;;;;;;;4.53;100.00;99505.03;5048735;28;20045;-83
2021/10/26 00:58:48;;;;;;;10.10;5.55;;;;;;;4.42;100.00;99505.16;5038852;28;20140;-83
2021/10/26 01:01:15;;;;;;;9.05;5.15;;;;;;;4.51;100.00;99498.94;5045211;28;20648;-83
2021/10/26 01:03:42;;;;;;;9.05;4.93;;;;;;;4.66;100.00;99517.41;5036897;28;20042;-83
2021/10/26 01:06:09;;;;;;;10.32;4.57;;;;;;;4.66;100.00;99510.16;5041530;28;20055;-83
2021/10/26 01:08:37;;;;;;;9.30;4.90;;;;;;;4.64;100.00;99506.78;5036432;28;20057;-83
2021/10/26 01:11:05;;;;;;;7.18;4.88;;;;;;;4.60;100.00;99497.25;5040230;28;20041;-83
2021/10/26 01:13:34;;;;;;;6.75;5.00;;;;;;;4.69;100.00;99522.50;5039707;28;20060;-83
2021/10/26 01:16:01;;;;;;;9.75;5.45;;;;;;;4.77;100.00;99509.19;5039005;28;20057;-83
2021/10/26 01:18:28;;;;;;;6.07;3.95;;;;;;;4.80;100.00;99516.97;5044212;28;20133;-83
2021/10/26 01:20:57;;;;;;;8.80;4.65;;;;;;;4.73;100.00;99505.94;5035524;28;20045;-83
2021/10/26 01:23:25;;;;;;;6.90;4.82;;;;;;;4.87;100.00;99518.13;5036014;28;20053;-83
2021/10/26 01:25:52;;;;;;;10.73;5.25;;;;;;;4.92;100.00;99517.72;5045282;28;20535;-83
2021/10/26 01:28:18;;;;;;;9.38;5.32;;;;;;;4.92;100.00;99523.97;5036075;28;20052;-83
2021/10/26 01:30:45;;;;;;;10.10;4.90;;;;;;;4.89;100.00;99518.00;5051749;28;20061;-83
2021/10/26 01:33:12;;;;;;;7.97;5.07;;;;;;;5.00;100.00;99504.41;5040821;28;20057;-83
2021/10/26 01:35:40;;;;;;;8.07;4.82;;;;;;;4.92;100.00;99499.72;5038100;28;20045;-83
2021/10/26 01:38:08;;;;;;;9.88;5.30;;;;;;;5.07;100.00;99510.94;5036774;28;20041;-83
2021/10/26 01:40:35;;;;;;;10.15;5.00;;;;;;;5.16;100.00;99521.84;5049616;28;20045;-83
2021/10/26 01:43:02;;;;;;;8.13;5.13;;;;;;;5.25;100.00;99519.16;5048650;28;20055;-84
2021/10/26 01:45:29;;;;;;;10.45;5.50;;;;;;;5.25;100.00;99521.00;5037881;28;20060;-83
2021/10/26 01:47:56;;;;;;;11.13;5.28;;;;;;;5.16;100.00;99511.91;5038305;28;20049;-83
2021/10/26 01:50:24;;;;;;;11.05;5.80;;;;;;;5.32;100.00;99512.19;5035443;28;20052;-83
2021/10/26 01:52:59;;;;;;;8.68;5.57;;;;;;;5.27;100.00;99506.41;5037483;28;21244;-83
2021/10/26 01:55:28;;;;;;;8.73;5.35;;;;;;;5.31;100.00;99518.59;5047130;28;20045;-83
2021/10/26 01:57:55;;;;;;;7.75;5.05;;;;;;;5.46;100.00;99516.28;5048215;28;20045;-83
2021/10/26 02:00:23;;;;;;;9.82;5.25;;;;;;;5.39;100.00;99511.63;5038840;28;20049;-83
2021/10/26 02:02:51;;;;;;;9.73;5.05;;;;;;;5.48;100.00;99522.41;5041780;28;20053;-82
2021/10/26 02:05:18;;;;;;;12.13;4.70;;;;;;;5.47;100.00;99520.72;5037739;28;20041;-83
2021/10/26 02:07:46;;;;;;;9.23;4.93;;;;;;;5.58;100.00;99526.94;5035101;28;20052;-83
2021/10/26 02:10:15;;;;;;;8.20;4.97;;;;;;;5.49;100.00;99518.75;5035057;28;20308;-83
2021/10/26 02:12:44;;;;;;;7.75;4.32;;;;;;;5.52;100.00;99509.50;5049243;28;20551;-83
2021/10/26 02:15:11;;;;;;;14.10;5.47;;;;;;;5.64;100.00;99521.81;5045691;28;20052;-83
2021/10/26 02:17:38;;;;;;;6.25;4.47;;;;;;;5.52;100.00;99495.16;5039866;28;20049;-83
2021/10/26 02:20:06;;;;;;;9.07;5.30;;;;;;;5.60;100.00;99512.31;5038470;28;20045;-83
2021/10/26 02:22:33;;;;;;;5.93;4.03;;;;;;;5.61;100.00;99515.88;5034936;28;20042;-83
2021/10/26 02:25:03;;;;;;;8.02;5.05;;;;;;;5.67;100.00;99529.66;5044323;28;20493;-83
2021/10/26 02:27:32;;;;;;;8.40;5.35;;;;;;;5.73;100.00;99530.03;5035976;28;20463;-83
2021/10/26 02:30:00;;;;;;;9.02;5.20;;;;;;;5.73;100.00;99519.25;5038703;28;20053;-83
2021/10/26 02:32:27;;;;;;;8.38;5.25;;;;;;;5.77;100.00;99529.63;5041246;28;20045;-83
2021/10/26 02:34:54;;;;;;;10.88;5.35;;;;;;;5.94;100.00;99535.25;5043652;28;20040;-83
2021/10/26 02:37:21;;;;;;;13.20;5.28;;;;;;;5.93;100.00;99538.94;5043564;28;20401;-83
2021/10/26 02:39:48;;;;;;;11.88;4.35;;;;;;;5.94;100.00;99536.09;5039480;28;20053;-83
2021/10/26 02:42:14;;;;;;;7.32;4.93;;;;;;;5.93;100.00;99522.75;5037307;28;20058;-83
2021/10/26 02:44:44;;;;;;;9.02;4.78;;;;;;;6.10;100.00;99526.59;5038940;28;20053;-83
2021/10/26 02:47:38;;;;;;;8.60;5.60;;;;;;;6.19;100.00;99533.78;5040961;28;20044;-84
2021/10/26 02:50:06;;;;;;;9.38;5.60;;;;;;;6.09;100.00;99533.81;5039870;28;20489;-83
2021/10/26 02:52:33;;;;;;;8.30;5.72;;;;;;;5.99;100.00;99528.47;5042718;28;20136;-83
2021/10/26 02:55:00;;;;;;;10.00;6.10;;;;;;;5.94;100.00;99532.56;5036787;28;20075;-83
2021/10/26 02:57:27;;;;;;;8.60;5.35;;;;;;;5.94;100.00;99524.47;5037135;28;20115;-83
2021/10/26 02:59:54;;;;;;;13.85;6.10;;;;;;;5.89;100.00;99515.97;5034179;28;20102;-83
2021/10/26 03:02:23;;;;;;;11.60;5.75;;;;;;;5.97;100.00;99522.34;5036863;28;20073;-83
2021/10/26 03:04:50;;;;;;;15.30;7.38;;;;;;;6.17;100.00;99538.47;5038095;28;20533;-83
2021/10/26 03:07:17;;;;;;;11.32;6.38;;;;;;;6.26;100.00;99526.78;5042001;28;20552;-83
2021/10/26 03:09:46;;;;;;;17.65;8.88;;;;;;;6.34;100.00;99510.72;5026909;28;20048;-83
2021/10/26 03:12:13;;;;;;;10.98;7.20;;;;;;;6.31;100.00;99526.38;5053658;28;20049;-83
2021/10/26 03:14:40;;;;;;;13.27;7.47;;;;;;;6.26;100.00;99521.38;5047671;28;20103;-83
2021/10/26 03:17:06;;;;;;;14.88;6.57;;;;;;;6.32;100.00;99533.44;5043766;28;20056;-83
2021/10/26 03:19:35;;;;;;;13.98;8.02;;;;;;;6.23;100.00;99518.97;5034956;28;20048;-83
2021/10/26 03:22:02;;;;;;;11.48;7.32;;;;;;;6.32;100.00;99526.22;5033157;28;20050;-84
2021/10/26 03:24:29;;;;;;;13.90;7.25;;;;;;;6.68;100.00;99545.22;5049357;28;20489;-83
2021/10/26 03:26:56;;;;;;;14.32;7.50;;;;;;;6.54;100.00;99534.91;5035144;28;20057;-84
2021/10/26 03:29:23;;;;;;;14.65;7.30;;;;;;;6.56;100.00;99543.72;5042170;28;20045;-83
2021/10/26 03:32:01;;;;;;;17.98;8.20;;;;;;;6.50;100.00;99547.00;5036452;28;20040;-83
2021/10/26 03:34:29;;;;;;;10.43;6.93;;;;;;;6.34;100.00;99532.31;5041914;28;20441;-83
2021/10/26 03:36:57;;;;;;;13.38;7.70;;;;;;;6.44;100.00;99547.63;5037024;28;20041;-83
2021/10/26 03:39:24;;;;;;;11.32;7.03;;;;;;;6.31;100.00;99521.81;5049097;28;20049;-83
2021/10/26 03:41:51;;;;;;;16.83;8.07;;;;;;;6.38;100.00;99535.56;5036554;28;20053;-83
2021/10/26 03:44:18;;;;;;;17.08;8.70;;;;;;;6.31;100.00;99537.16;5041193;28;20401;-83
2021/10/26 03:46:44;;;;;;;19.38;8.32;;;;;;;6.48;100.00;99552.56;5044607;28;20053;-83
2021/10/26 03:49:11;;;;;;;13.95;7.95;;;;;;;6.53;100.00;99544.00;5043008;28;20194;-82
2021/10/26 03:51:38;;;;;;;15.70;7.82;;;;;;;6.66;100.00;99568.84;5042369;28;20127;-83
2021/10/26 03:54:06;;;;;;;15.10;8.93;;;;;;;6.51;100.00;99565.78;5038076;28;20095;-84
2021/10/26 03:56:34;;;;;;;12.18;7.53;;;;;;;6.40;100.00;99544.38;5050788;28;20060;-83
2021/10/26 03:59:04;;;;;;;11.05;7.35;;;;;;;6.50;100.00;99574.91;5042239;28;20061;-83
2021/10/26 04:01:30;;;;;;;;;;;;;;;6.42;100.00;99563.97;5046046;28;20144;-83
2021/10/26 04:03:57;;;;;;;12.07;6.95;;;;;;;6.35;100.00;99562.84;5041996;28;19921;-83
2021/10/26 04:06:26;;;;;;;13.88;6.68;;;;;;;6.48;100.00;99544.47;5037235;28;20144;-84
2021/10/26 04:08:56;;;;;;;13.57;7.00;;;;;;;6.48;100.00;99546.31;5030775;28;20045;-83
2021/10/26 04:11:27;;;;;;;13.52;7.72;;;;;;;6.64;100.00;99554.63;5044855;28;20045;-82
2021/10/26 04:13:54;;;;;;;15.68;8.63;;;;;;;6.60;100.00;99561.34;5052635;28;20073;-83
2021/10/26 04:16:24;;;;;;;13.02;8.80;;;;;;;6.54;100.00;99530.34;5019450;28;20046;-83
2021/10/26 04:18:51;;;;;;;13.15;8.27;;;;;;;6.57;100.00;99560.78;5039061;28;20045;-83
2021/10/26 04:21:18;;;;;;;15.52;8.40;;;;;;;6.67;100.00;99581.34;5043712;28;20051;-83
2021/10/26 04:23:46;;;;;;;10.98;7.32;;;;;;;6.46;100.00;99551.88;5037352;28;20129;-83
2021/10/26 04:26:16;;;;;;;13.02;7.63;;;;;;;6.41;100.00;99561.41;5043053;28;20041;-84
2021/10/26 04:28:47;;;;;;;19.23;8.70;;;;;;;6.55;100.00;99567.19;5045055;28;20412;-84
2021/10/26 04:31:15;;;;;;;12.57;7.35;;;;;;;6.49;100.00;99567.78;5033868;28;20378;-83
2021/10/26 04:33:45;;;;;;;13.60;6.97;;;;;;;6.41;100.00;99572.22;5039565;28;20103;-83
2021/10/26 04:36:11;;;;;;;11.35;7.30;;;;;;;6.51;100.00;99578.44;5045800;28;20045;-83
2021/10/26 04:38:39;;;;;;;13.38;7.38;;;;;;;6.43;100.00;99567.50;5034791;28;20048;-83
2021/10/26 04:41:08;;;;;;;10.73;6.82;;;;;;;6.42;100.00;99574.78;5034798;28;20559;-83
2021/10/26 04:43:35;;;;;;;13.75;7.47;;;;;;;6.36;100.00;99578.06;5033648;28;20049;-83
2021/10/26 04:46:03;;;;;;;9.25;6.75;;;;;;;6.42;100.00;99582.88;5032120;28;20467;-83
2021/10/26 04:48:30;;;;;;;13.15;7.32;;;;;;;6.40;100.00;99574.09;5033301;28;20053;-83
2021/10/26 04:50:57;;;;;;;11.68;6.90;;;;;;;6.28;100.00;99567.13;5037065;28;20057;-83
2021/10/26 04:53:24;;;;;;;14.32;7.60;;;;;;;6.29;100.00;99590.44;5043682;28;20041;-83
2021/10/26 04:55:51;;;;;;;14.60;7.20;;;;;;;6.27;100.00;99574.41;5031767;28;20499;-83
2021/10/26 04:58:18;;;;;;;13.55;7.35;;;;;;;6.29;100.00;99587.75;5033295;28;20049;-83
2021/10/26 05:00:45;;;;;;;13.23;7.45;;;;;;;6.29;100.00;99596.72;5034820;28;20064;-83
2021/10/26 05:03:14;;;;;;;13.77;7.22;;;;;;;6.12;100.00;99574.00;5043372;28;20440;-83
2021/10/26 05:05:41;;;;;;;14.68;7.05;;;;;;;6.23;100.00;99593.75;5034535;28;20049;-83
2021/10/26 05:08:07;;;;;;;11.98;6.82;;;;;;;6.25;100.00;99599.84;5037708;28;20041;-83
2021/10/26 05:10:34;;;;;;;10.55;5.97;;;;;;;6.22;100.00;99601.00;5045354;28;20318;-83
2021/10/26 05:13:01;;;;;;;13.18;5.93;;;;;;;6.15;100.00;99591.78;5040194;28;20061;-83
2021/10/26 05:15:28;;;;;;;13.63;6.10;;;;;;;6.07;100.00;99587.09;5042082;28;20042;-83
2021/10/26 05:17:57;;;;;;;10.65;5.93;;;;;;;6.13;100.00;99589.22;5032984;28;20050;-83
2021/10/26 05:20:27;;;;;;;8.82;5.68;;;;;;;6.06;100.00;99581.84;5031153;28;20050;-83
2021/10/26 05:22:55;;;;;;;10.95;5.97;;;;;;;6.11;100.00;99588.53;5031338;28;20053;-83
2021/10/26 05:25:22;;;;;;;9.93;5.78;;;;;;;5.92;100.00;99575.88;5034747;28;20056;-83
2021/10/26 05:27:49;;;;;;;11.77;6.90;;;;;;;5.98;100.00;99567.22;5031344;28;20057;-83
2021/10/26 05:30:16;;;;;;;11.30;6.80;;;;;;;6.13;100.00;99599.19;5030803;28;20452;-83
2021/10/26 05:32:42;;;;;;;12.55;7.53;;;;;;;6.20;100.00;99593.03;5038719;28;20045;-83
2021/10/26 05:35:09;;;;;;;14.50;7.78;;;;;;;6.07;100.00;99600.59;5031502;28;20089;-83
2021/10/26 05:37:38;;;;;;;10.98;7.32;;;;;;;6.14;100.00;99617.06;5039304;28;20052;-83
2021/10/26 05:40:09;;;;;;;12.52;7.43;;;;;;;6.26;100.00;99593.44;5047742;28;20076;-83
2021/10/26 05:42:36;;;;;;;11.45;7.53;;;;;;;6.19;100.00;99593.19;5033812;28;20053;-82
2021/10/26 05:45:03;;;;;;;13.98;8.25;;;;;;;6.16;100.00;99593.50;5052461;28;20049;-83
2021/10/26 05:47:32;;;;;;;12.05;7.65;;;;;;;6.14;100.00;99590.06;5050187;28;20114;-82
2021/10/26 05:56:12;;;;;;;15.02;8.65;;;;;;;6.34;100.00;99610.63;5350624;22;20048;-83
2021/10/26 05:58:39;;;;;;;14.98;8.05;;;;;;;6.19;100.00;99599.44;5033405;28;20045;-83
2021/10/26 06:01:06;;;;;;;14.20;7.60;;;;;;;6.33;100.00;99608.91;5050872;28;20048;-83
2021/10/26 06:03:33;;;;;;;18.17;10.18;;;;;;;6.44;100.00;99601.63;5046418;28;20053;-83
2021/10/26 06:06:00;;;;;;;17.30;9.15;;;;;;;6.49;100.00;99599.34;5053303;28;20492;-83
2021/10/26 06:08:28;;;;;;;21.00;11.07;;;;;;;6.66;100.00;99601.25;5054639;28;20051;-83
2021/10/26 06:10:57;;;;;;;20.48;10.27;;;;;;;6.83;100.00;99628.50;5054238;28;20056;-83
2021/10/26 06:13:29;;;;;;;17.80;9.93;;;;;;;6.80;100.00;99626.94;5050879;28;20138;-83
2021/10/26 06:15:56;;;;;;;19.38;9.50;;;;;;;6.64;100.00;99611.38;5042620;28;20049;-83
2021/10/26 06:18:22;;;;;;;20.60;10.70;;;;;;;6.61;100.00;99624.31;5054342;28;20492;-83
2021/10/26 06:20:49;;;;;;;13.93;9.57;;;;;;;6.61;100.00;99630.59;5054057;28;20378;-83
2021/10/26 06:23:16;;;;;;;21.02;8.95;;;;;;;6.57;100.00;99629.16;5053924;28;20040;-83
2021/10/26 06:25:43;;;;;;;17.63;9.45;;;;;;;6.60;100.00;99633.44;5054429;28;20049;-83
2021/10/26 06:28:10;;;;;;;15.50;8.60;;;;;;;6.71;100.00;99650.31;5054034;28;20055;-82
2021/10/26 06:30:38;;;;;;;22.27;11.25;;;;;;;6.80;100.00;99653.13;5053106;28;20060;-83
2021/10/26 06:33:05;;;;;;;15.77;9.80;;;;;;;6.81;100.00;99652.97;5043293;28;20045;-83
2021/10/26 06:35:32;;;;;;;24.42;9.95;;;;;;;6.73;100.00;99637.50;5052838;28;20530;-83
2021/10/26 06:37:59;;;;;;;15.52;9.25;;;;;;;6.86;100.00;99649.81;5053561;28;20068;-83
2021/10/26 06:40:27;;;;;;;19.67;11.02;;;;;;;6.71;100.00;99642.22;5054793;28;20056;-83
2021/10/26 06:42:54;;;;;;;19.15;9.70;;;;;;;6.69;100.00;99651.47;5052342;28;20060;-83
2021/10/26 06:45:20;;;;;;;15.55;8.70;;;;;;;6.81;100.00;99674.59;5053018;28;20484;-84
2021/10/26 06:47:52;;;;;;;18.42;9.50;;;;;;;6.91;100.00;99674.56;5055173;28;20424;-85
2021/10/26 06:50:19;;;;;;;15.00;9.90;;;;;;;6.89;100.00;99680.13;5055650;28;20063;-86
2021/10/26 06:52:46;;;;;;;16.27;9.05;;;;;;;6.94;100.00;99682.38;5051255;28;20102;-84
2021/10/26 06:55:18;;;;;;;16.42;9.48;;;;;;;6.90;100.00;99683.66;5050514;28;20508;-85
2021/10/26 06:57:49;;;;;;;16.67;10.05;;;;;;;6.85;100.00;99664.31;5047053;28;20093;-85
2021/10/26 07:00:22;;;;;;;15.27;9.40;;;;;;;6.94;100.00;99687.78;5051636;28;20135;-84
2021/10/26 07:02:58;;;;;;;14.73;8.73;;;;;;;6.95;100.00;99694.88;5053936;28;20103;-84
2021/10/26 07:05:26;;;;;;;14.95;9.23;;;;;;;7.03;100.00;99676.06;5048616;28;20057;-84
2021/10/26 07:07:53;;;;;;;17.00;9.27;;;;;;;6.94;100.00;99681.50;5051576;28;20051;-84
2021/10/26 07:10:28;;;;;;;12.70;7.78;;;;;;;6.89;100.00;99685.53;5039042;28;20115;-85
2021/10/26 07:13:19;;;;;;;18.50;8.30;;;;;;;7.11;100.00;99680.72;5055551;28;20511;-84
2021/10/26 07:15:47;;;;;;;13.38;8.10;;;;;;;7.24;100.00;99708.25;5043589;28;20561;-84
2021/10/26 07:18:16;;;;;;;14.52;9.50;;;;;;;7.23;100.00;99692.19;5044254;28;20049;-84
2021/10/26 07:20:52;;;;;;;15.05;9.85;;;;;;;7.56;100.00;99709.66;5060046;28;20041;-84
2021/10/26 07:23:19;;;;;;;17.20;9.45;;;;;;;7.60;100.00;99702.06;5059887;28;20037;-85
2021/10/26 07:25:46;;;;;;;18.10;10.32;;;;;;;7.73;100.00;99702.53;5047421;28;20053;-84
2021/10/26 07:28:14;;;;;;;18.63;9.90;;;;;;;7.75;100.00;99687.03;5059504;28;20128;-84
2021/10/26 07:30:44;;;;;;;19.15;10.32;;;;;;;7.96;100.00;99694.84;5053028;28;20045;-84
2021/10/26 07:33:19;;;;;;;16.05;10.27;;;;;;;8.16;100.00;99719.03;5043343;28;20041;-85
2021/10/26 07:35:48;;;;;;;16.90;9.60;;;;;;;8.03;100.00;99697.75;5049590;28;20053;-85
2021/10/26 07:38:25;;;;;;;19.13;9.45;;;;;;;8.13;100.00;99713.94;5048375;28;20099;-85
2021/10/26 07:40:52;;;;;;;19.95;10.93;;;;;;;8.14;100.00;99713.78;5048324;28;20111;-84
2021/10/26 07:43:19;;;;;;;20.55;10.20;;;;;;;8.02;100.00;99696.03;5049904;28;20048;-84
2021/10/26 07:45:46;;;;;;;18.38;10.63;;;;;;;7.96;100.00;99712.91;5045232;28;20050;-84
2021/10/26 07:48:13;;;;;;;16.02;9.57;;;;;;;7.94;100.00;99718.47;5050971;28;20057;-84
2021/10/26 07:50:43;;;;;;;19.75;10.25;;;;;;;7.94;100.00;99725.78;5052173;28;20057;-84
2021/10/26 07:53:14;;;;;;;17.53;10.20;;;;;;;7.76;100.00;99717.63;5044337;28;20049;-84
2021/10/26 07:55:41;;;;;;;17.95;9.32;;;;;;;7.89;100.00;99718.09;5049065;28;20099;-84
2021/10/26 07:58:09;;;;;;;21.58;9.70;;;;;;;7.79;100.00;99701.94;5042645;28;20049;-85
2021/10/26 08:00:36;;;;;;;16.50;9.43;;;;;;;7.84;100.00;99714.16;5051782;28;20089;-84
2021/10/26 08:03:04;;;;;;;19.15;10.65;;;;;;;7.93;100.00;99724.94;5059148;28;20420;-84
2021/10/26 08:43:21;;;;;;;11.38;7.50;;;;;;;9.57;100.00;99721.59;4865193;29;20056;-84
2021/10/26 09:03:50;;;;;;;11.80;6.97;;;;;;;10.49;100.00;99709.84;4891670;29;20529;-84
2021/10/26 09:18:32;;;;;;;15.65;8.05;;;;;;;10.70;100.00;99723.75;4981812;28;20063;-85
2021/10/26 09:20:59;;;;;;;16.48;8.93;;;;;;;10.77;100.00;99704.91;5052005;28;20045;-84
2021/10/26 09:23:27;;;;;;;17.02;6.93;;;;;;;10.82;100.00;99699.78;5050015;28;20049;-84
2021/10/26 09:25:59;;;;;;;13.13;6.80;;;;;;;10.95;100.00;99701.97;5046731;28;20042;-84
2021/10/26 09:28:28;;;;;;;11.98;6.22;;;;;;;11.03;100.00;99703.81;5035375;28;20056;-84
2021/10/26 09:31:04;;;;;;;11.65;6.18;;;;;;;11.21;100.00;99692.69;5050135;28;20071;-84
2021/10/26 09:33:35;;;;;;;13.52;6.32;;;;;;;11.28;100.00;99701.84;5046261;28;20056;-84
2021/10/26 09:36:24;;;;;;;10.52;5.72;;;;;;;11.40;100.00;99707.78;5051154;28;20124;-84
2021/10/26 09:39:09;;;;;;;8.63;5.27;;;;;;;11.45;100.00;99714.34;5039063;28;20050;-84
2021/10/26 09:41:38;;;;;;;6.65;4.57;;;;;;;11.52;98.80;99706.34;5062885;28;20062;-84
2021/10/26 09:44:13;;;;;;;7.30;4.47;;;;;;;11.68;99.08;99725.31;5055813;28;20049;-84
2021/10/26 09:47:14;;;;;;;7.68;5.05;;;;;;;11.61;98.56;99704.44;5047116;28;20480;-84
2021/10/26 09:49:43;;;;;;;9.48;4.53;;;;;;;11.62;97.49;99697.94;5040325;28;20054;-84
2021/10/26 09:52:12;;;;;;;9.20;4.15;;;;;;;11.78;98.07;99711.47;5055272;28;20064;-84
2021/10/26 09:55:06;;;;;;;9.40;5.28;;;;;;;11.91;98.91;99702.72;5053858;28;20073;-84
2021/10/26 09:57:37;;;;;;;7.65;4.20;;;;;;;12.13;97.45;99714.66;5053337;28;20094;-83
2021/10/26 10:00:26;;;;;;;12.25;5.00;;;;;;;12.14;97.33;99710.91;5046008;28;20053;-84
2021/10/26 10:02:58;;;;;;;6.95;3.53;;;;;;;12.17;93.88;99728.78;5048466;28;20394;-84
2021/10/26 10:05:29;;;;;;;12.68;3.67;;;;;;;12.14;93.42;99732.72;5050214;28;20408;-84
2021/10/26 10:07:56;;;;;;;7.93;3.85;;;;;;;12.32;95.04;99737.88;5053176;28;20504;-84
2021/10/26 10:10:36;;;;;;;9.40;3.53;;;;;;;12.29;94.77;99726.50;5049796;28;20109;-83
2021/10/26 10:13:03;;;;;;;7.97;4.28;;;;;;;12.41;93.55;99726.91;5057925;28;20094;-84
2021/10/26 10:15:32;;;;;;;10.50;3.83;;;;;;;12.48;92.94;99741.50;5051096;28;20049;-84
2021/10/26 10:17:59;;;;;;;10.95;4.60;;;;;;;12.53;92.68;99731.72;5040736;28;20052;-84
2021/10/26 10:20:27;;;;;;;9.68;4.20;;;;;;;12.48;92.02;99738.75;5051693;28;20139;-83
2021/10/26 10:22:55;;;;;;;8.10;4.13;;;;;;;12.49;92.50;99732.28;5054472;28;20518;-84
2021/10/26 10:25:22;;;;;;;12.70;3.97;;;;;;;12.41;92.30;99725.03;5050701;28;20057;-83
2021/10/26 10:27:50;;;;;;;8.07;4.10;;;;;;;12.71;92.06;99730.56;5049768;28;20053;-83
2021/10/26 10:30:18;;;;;;;10.30;4.47;;;;;;;12.70;92.07;99734.31;5056001;28;20052;-84
2021/10/26 10:32:46;;;;;;;11.15;4.43;;;;;;;12.68;90.49;99729.03;5069776;28;20048;-84
2021/10/26 10:35:16;;;;;;;9.27;4.80;;;;;;;12.73;91.41;99731.22;5075837;28;20102;-84
2021/10/26 10:37:48;;;;;;;12.15;4.97;;;;;;;12.77;91.83;99715.31;5075324;28;20044;-84
2021/10/26 10:40:22;;;;;;;9.40;4.85;;;;;;;12.82;90.53;99732.00;5060077;28;20499;-83
2021/10/26 10:42:51;;;;;;;9.60;5.15;;;;;;;12.75;90.52;99724.56;5054057;28;20045;-83
2021/10/26 10:45:32;;;;;;;14.88;5.55;;;;;;;12.77;91.82;99729.81;5051239;28;20052;-84
2021/10/26 10:48:01;;;;;;;10.55;5.43;;;;;;;12.79;92.45;99726.91;5051493;28;20050;-83
2021/10/26 10:50:37;;;;;;;8.10;4.47;;;;;;;12.77;91.10;99721.63;5061842;28;20487;-84
2021/10/26 10:53:19;;;;;;;9.30;4.55;;;;;;;12.74;91.05;99700.19;5053421;28;20503;-84
2021/10/26 10:55:49;;;;;;;12.13;4.18;;;;;;;12.98;90.96;99720.06;5053411;28;20091;-83
2021/10/26 10:58:32;;;;;;;;;;;;;;;13.11;90.16;99714.78;5055655;28;20052;-83
2021/10/26 11:03:35;;;;;;;7.75;3.65;;;;;;;13.32;89.31;99722.22;5017189;22;20060;-81
2021/10/26 11:06:41;;;;;;;8.60;3.67;;;;;;;13.33;89.36;99704.81;5011776;28;20629;-81
2021/10/26 11:09:44;;;;;;;10.23;4.63;;;;;;;13.40;88.94;99713.13;4994935;28;20046;-81
2021/10/26 11:12:14;;;;;;;18.20;4.53;;;;;;;13.32;88.50;99714.03;5012845;28;20053;-81
2021/10/26 11:14:43;;;;;;;8.40;3.63;;;;;;;13.25;87.82;99710.38;5012935;28;20053;-81
2021/10/26 11:17:58;;;;;;;11.30;3.90;;;;;;;13.14;88.32;99719.03;5012525;28;20081;-81
2021/10/26 11:20:45;;;;;;;10.25;4.47;;;;;;;13.05;90.16;99716.41;5012875;28;20133;-81
2021/10/26 11:23:15;;;;;;;8.77;3.63;;;;;;;13.08;90.05;99710.56;5009162;28;20111;-81
2021/10/26 11:25:45;;;;;;;5.97;3.20;;;;;;;13.06;90.21;99698.13;5013124;28;20417;-81
2021/10/26 11:28:38;;;;;;;9.75;4.00;;;;;;;13.20;90.13;99713.69;5012848;28;20049;-81
2021/10/26 11:31:07;;;;;;;7.18;2.90;;;;;;;13.39;88.42;99712.25;4996863;28;20104;-81
2021/10/26 11:33:37;;;;;;;9.75;3.00;;;;;;;13.70;87.16;99693.94;5012825;28;20076;-81
2021/10/26 11:36:50;;;;;;;13.50;3.70;;;;;;;14.04;85.81;99700.63;5008381;28;20049;-81
2021/10/26 11:39:20;;;;;;;4.60;2.72;;;;;;;14.16;84.89;99691.69;5010881;28;20064;-81
2021/10/26 11:42:07;;;;;;;8.43;3.38;;;;;;;14.40;84.01;99700.56;5013286;28;20144;-81
2021/10/26 11:44:53;;;;;;;4.97;2.45;;;;;;;13.97;84.33;99695.94;5005158;28;20081;-81
2021/10/26 11:47:20;;;;;;;8.27;2.60;;;;;;;13.94;85.02;99682.66;5008925;28;20583;-81
2021/10/26 11:49:47;;;;;;;7.10;2.75;;;;;;;13.90;85.45;99707.84;5010221;28;20124;-80
2021/10/26 11:52:14;;;;;;;6.40;2.90;;;;;;;13.64;86.70;99701.03;5008634;28;20058;-81
2021/10/26 11:54:50;;;;;;;4.72;2.55;;;;;;;13.53;86.88;99705.09;5006815;28;20057;-81
2021/10/26 11:57:22;;;;;;;6.25;2.90;;;;;;;13.39;87.11;99701.34;5011842;28;20465;-81
2021/10/26 13:06:35;;;;;;;4.85;1.70;;;;;;;13.31;94.91;99687.78;4839542;29;19939;-79
2021/10/26 13:16:15;;;;;;;2.22;1.17;;;;;;;13.68;90.77;99675.00;4934093;29;20070;-80
2021/10/26 13:22:31;;;;;;;5.07;1.77;;;;;;;14.09;91.33;99663.47;4840689;29;20061;-80
2021/10/26 13:25:51;;;;;;;3.58;1.70;;;;;;;14.29;87.66;99677.31;4839568;29;20070;-80
2021/10/26 13:38:12;;;;;;;5.28;1.52;;;;;;;13.56;87.58;99673.81;5043826;28;20115;-81
2021/10/26 13:41:04;;;;;;;5.40;1.52;;;;;;;13.52;89.17;99665.16;5051158;28;20242;-80
2021/10/26 13:43:48;;;;;;;4.57;1.73;;;;;;;13.58;88.03;99669.88;5047322;28;20487;-80
2021/10/26 14:21:06;;;;;;;;;;;;;;;;;;;;;
2021/10/26 14:37:44;;;;;;;4.50;1.40;;;;;;;13.59;86.62;99711.69;4816745;29;20144;-81
2021/10/26 15:03:49;;;;;;;2.70;1.10;;;;;;;13.19;85.36;99703.78;4882538;29;20059;-81
2021/10/26 15:06:54;;;;;;;3.85;1.60;;;;;;;13.02;86.79;99705.88;4905904;29;20052;-81
2021/10/26 15:09:28;;;;;;;2.78;1.33;;;;;;;12.89;87.22;99702.94;4924241;28;20041;-81
2021/10/26 15:12:39;;;;;;;8.38;1.80;;;;;;;12.98;87.90;99699.06;4996776;28;20401;-81
2021/10/26 15:15:09;;;;;;;4.65;1.88;;;;;;;12.83;87.77;99709.97;4993023;28;20589;-81
2021/10/26 15:17:39;;;;;;;4.40;1.52;;;;;;;12.77;88.24;99704.41;4998132;28;20125;-80
2021/10/26 15:20:07;;;;;;;6.38;1.73;;;;;;;12.78;89.04;99717.88;5020251;28;20136;-81
2021/10/26 15:23:11;;;;;;;4.03;2.00;;;;;;;12.71;88.95;99715.03;5033172;28;20397;-81
2021/10/26 15:26:16;;;;;;;4.55;1.60;;;;;;;12.54;90.00;99702.56;5032520;28;20146;-81
2021/10/26 15:38:29;;;;;;;6.72;1.95;;;;;;;12.49;91.43;99724.94;4953583;28;20055;-81
2021/10/26 15:44:46;;;;;;;3.88;1.73;;;;;;;12.21;92.38;99713.78;4948765;28;20065;-81
2021/10/26 15:47:58;;;;;;;7.57;1.52;;;;;;;12.25;92.50;99727.88;4971893;28;20046;-81
2021/10/26 15:53:45;;;;;;;;;;;;;;;12.18;92.68;99734.06;4999672;28;20057;-81
2021/10/26 15:56:12;;;;;;;5.22;2.17;;;;;;;12.13;93.17;99738.34;5035655;28;19921;-81
2021/10/26 15:58:39;;;;;;;5.85;2.08;;;;;;;11.97;93.82;99732.00;5044058;28;20485;-81
2021/10/26 16:01:08;;;;;;;4.15;2.25;;;;;;;11.79;94.52;99731.41;5032523;28;20053;-81